createdAt,value
2017-11-14T00:00:10.722Z,960.11
2017-11-14T00:01:10.736Z,960.13
2017-11-14T00:02:10.751Z,960.11
2017-11-14T00:03:10.765Z,960.15
2017-11-14T00:04:10.786Z,960.14
2017-11-14T00:05:10.793Z,960.13
2017-11-14T00:06:10.808Z,960.12
2017-11-14T00:07:10.821Z,960.19
2017-11-14T00:08:10.850Z,960.2
2017-11-14T00:09:10.852Z,960.21
2017-11-14T00:10:10.865Z,960.17
2017-11-14T00:11:10.896Z,960.24
2017-11-14T00:12:10.893Z,960.25
2017-11-14T00:13:10.907Z,960.26
2017-11-14T00:14:10.923Z,960.24
2017-11-14T00:15:10.941Z,960.29
2017-11-14T00:16:10.951Z,960.25
2017-11-14T00:17:10.966Z,960.29
2017-11-14T00:18:11.030Z,960.31
2017-11-14T00:19:10.992Z,960.3
2017-11-14T00:20:11.009Z,960.35
2017-11-14T00:21:11.023Z,960.37
2017-11-14T00:22:11.038Z,960.42
2017-11-14T00:23:11.051Z,960.39
2017-11-14T00:24:11.064Z,960.43
2017-11-14T00:25:11.079Z,960.43
2017-11-14T00:26:11.093Z,960.44
2017-11-14T00:27:11.107Z,960.42
2017-11-14T00:28:11.121Z,960.39
2017-11-14T00:29:11.134Z,960.46
2017-11-14T00:30:11.150Z,960.45
2017-11-14T00:31:11.163Z,960.49
2017-11-14T00:32:11.179Z,960.49
2017-11-14T00:33:11.242Z,960.52
2017-11-14T00:34:11.207Z,960.5
2017-11-14T00:35:11.220Z,960.48
2017-11-14T00:36:11.235Z,960.49
2017-11-14T00:37:11.266Z,960.46
2017-11-14T00:38:11.262Z,960.47
2017-11-14T00:39:11.275Z,960.46
2017-11-14T00:40:11.291Z,960.44
2017-11-14T00:41:11.307Z,960.46
2017-11-14T00:42:11.317Z,960.51
2017-11-14T00:43:11.334Z,960.51
2017-11-14T00:44:11.348Z,960.55
2017-11-14T00:45:11.361Z,960.54
2017-11-14T00:46:11.374Z,960.54
2017-11-14T00:47:11.389Z,960.51
2017-11-14T00:48:11.453Z,960.56
2017-11-14T00:49:11.419Z,960.58
2017-11-14T00:50:11.431Z,960.55
2017-11-14T00:51:11.446Z,960.61
2017-11-14T00:52:11.459Z,960.6
2017-11-14T00:53:11.479Z,960.62
2017-11-14T00:54:11.489Z,960.65
2017-11-14T00:55:11.504Z,960.67
2017-11-14T00:56:11.517Z,960.66
2017-11-14T00:57:11.531Z,960.69
2017-11-14T00:58:11.546Z,960.71
2017-11-14T00:59:11.559Z,960.72
2017-11-14T01:00:11.573Z,960.71
2017-11-14T01:01:11.587Z,960.72
2017-11-14T01:02:11.609Z,960.71
2017-11-14T01:03:11.766Z,960.72
2017-11-14T01:04:11.630Z,960.74
2017-11-14T01:05:11.643Z,960.66
2017-11-14T01:06:11.664Z,960.69
2017-11-14T01:07:11.672Z,960.68
2017-11-14T01:08:11.687Z,960.66
2017-11-14T01:09:11.701Z,960.68
2017-11-14T01:10:11.716Z,960.73
2017-11-14T01:11:11.730Z,960.75
2017-11-14T01:12:11.745Z,960.72
2017-11-14T01:13:11.767Z,960.76
2017-11-14T01:14:11.773Z,960.78
2017-11-14T01:15:11.807Z,960.84
2017-11-14T01:16:11.800Z,960.75
2017-11-14T01:17:11.817Z,960.84
2017-11-14T01:18:11.829Z,960.81
2017-11-14T01:19:11.844Z,960.82
2017-11-14T01:20:11.910Z,960.79
2017-11-14T01:21:11.873Z,960.83
2017-11-14T01:22:11.887Z,960.78
2017-11-14T01:23:11.902Z,960.79
2017-11-14T01:24:11.916Z,960.76
2017-11-14T01:25:11.930Z,960.73
2017-11-14T01:26:11.943Z,960.76
2017-11-14T01:27:11.958Z,960.8
2017-11-14T01:28:11.972Z,960.81
2017-11-14T01:29:11.987Z,960.8
2017-11-14T01:30:12.002Z,960.79
2017-11-14T01:31:12.016Z,960.75
2017-11-14T01:32:12.031Z,960.78
2017-11-14T01:33:12.045Z,960.82
2017-11-14T01:34:12.058Z,960.81
2017-11-14T01:35:12.123Z,960.82
2017-11-14T01:36:12.086Z,960.81
2017-11-14T01:37:12.101Z,960.76
2017-11-14T01:38:12.119Z,960.82
2017-11-14T01:39:12.130Z,960.79
2017-11-14T01:40:12.144Z,960.78
2017-11-14T01:41:12.157Z,960.73
2017-11-14T01:42:12.174Z,960.77
2017-11-14T01:43:12.187Z,960.78
2017-11-14T01:44:12.201Z,960.81
2017-11-14T01:45:12.215Z,960.79
2017-11-14T01:46:12.231Z,960.74
2017-11-14T01:47:12.245Z,960.74
2017-11-14T01:48:12.258Z,960.74
2017-11-14T01:49:12.273Z,960.78
2017-11-14T01:50:12.288Z,960.76
2017-11-14T01:51:12.300Z,960.76
2017-11-14T01:52:12.366Z,960.75
2017-11-14T01:53:12.329Z,960.76
2017-11-14T01:54:12.344Z,960.79
2017-11-14T01:55:12.357Z,960.79
2017-11-14T01:56:12.373Z,960.84
2017-11-14T01:57:12.385Z,960.86
2017-11-14T01:58:12.399Z,960.88
2017-11-14T01:59:12.413Z,960.91
2017-11-14T02:00:12.430Z,960.87
2017-11-14T02:01:12.443Z,960.87
2017-11-14T02:02:12.457Z,960.84
2017-11-14T02:03:12.470Z,960.84
2017-11-14T02:04:12.485Z,960.89
2017-11-14T02:05:12.499Z,960.87
2017-11-14T02:06:12.513Z,960.86
2017-11-14T02:07:12.578Z,960.87
2017-11-14T02:08:12.541Z,960.85
2017-11-14T02:09:12.555Z,960.86
2017-11-14T02:10:12.569Z,960.88
2017-11-14T02:11:12.589Z,960.85
2017-11-14T02:12:12.599Z,960.86
2017-11-14T02:13:12.613Z,960.78
2017-11-14T02:14:12.626Z,960.84
2017-11-14T02:15:12.640Z,960.79
2017-11-14T02:16:12.653Z,960.78
2017-11-14T02:17:12.666Z,960.74
2017-11-14T02:18:12.682Z,960.73
2017-11-14T02:19:12.700Z,960.75
2017-11-14T02:20:12.708Z,960.75
2017-11-14T02:21:12.724Z,960.8
2017-11-14T02:22:12.739Z,960.79
2017-11-14T02:23:12.753Z,960.79
2017-11-14T02:24:12.766Z,960.81
2017-11-14T02:25:12.782Z,960.83
2017-11-14T02:26:12.795Z,960.84
2017-11-14T02:27:12.808Z,960.89
2017-11-14T02:28:12.821Z,960.94
2017-11-14T02:29:12.837Z,960.96
2017-11-14T02:30:12.855Z,960.98
2017-11-14T02:31:12.866Z,961
2017-11-14T02:32:12.884Z,961.03
2017-11-14T02:33:12.896Z,961.04
2017-11-14T02:34:12.907Z,961.05
2017-11-14T02:35:12.937Z,961.1
2017-11-14T02:36:12.936Z,961.12
2017-11-14T02:37:12.952Z,961.15
2017-11-14T02:38:12.963Z,961.17
2017-11-14T02:39:12.979Z,961.12
2017-11-14T02:40:13.007Z,961.17
2017-11-14T02:41:13.007Z,961.2
2017-11-14T02:42:13.021Z,961.18
2017-11-14T02:43:13.034Z,961.19
2017-11-14T02:44:13.047Z,961.24
2017-11-14T02:45:13.061Z,961.26
2017-11-14T02:46:13.075Z,961.25
2017-11-14T02:47:13.090Z,961.3
2017-11-14T02:48:13.106Z,961.27
2017-11-14T02:49:13.117Z,961.28
2017-11-14T02:50:13.130Z,961.27
2017-11-14T02:51:13.145Z,961.3
2017-11-14T02:52:13.161Z,961.28
2017-11-14T02:53:13.173Z,961.28
2017-11-14T02:54:13.188Z,961.26
2017-11-14T02:55:13.200Z,961.28
2017-11-14T02:56:13.218Z,961.28
2017-11-14T02:57:13.228Z,961.31
2017-11-14T02:58:13.244Z,961.31
2017-11-14T02:59:13.258Z,961.32
2017-11-14T03:00:13.272Z,961.31
2017-11-14T03:01:13.285Z,961.34
2017-11-14T03:02:13.299Z,961.35
2017-11-14T03:03:13.312Z,961.33
2017-11-14T03:04:13.326Z,961.34
2017-11-14T03:05:13.339Z,961.33
2017-11-14T03:06:13.355Z,961.34
2017-11-14T03:07:13.369Z,961.36
2017-11-14T03:08:13.380Z,961.35
2017-11-14T03:09:13.405Z,961.37
2017-11-14T03:10:13.415Z,961.39
2017-11-14T03:11:13.473Z,961.39
2017-11-14T03:12:13.438Z,961.42
2017-11-14T03:13:13.452Z,961.43
2017-11-14T03:14:13.467Z,961.41
2017-11-14T03:15:13.481Z,961.46
2017-11-14T03:16:13.494Z,961.47
2017-11-14T03:17:13.507Z,961.44
2017-11-14T03:18:13.522Z,961.48
2017-11-14T03:19:13.537Z,961.49
2017-11-14T03:20:13.551Z,961.46
2017-11-14T03:21:13.565Z,961.45
2017-11-14T03:22:13.579Z,961.48
2017-11-14T03:23:13.593Z,961.46
2017-11-14T03:24:13.605Z,961.49
2017-11-14T03:25:13.621Z,961.46
2017-11-14T03:26:13.693Z,961.53
2017-11-14T03:27:13.649Z,961.57
2017-11-14T03:28:13.661Z,961.56
2017-11-14T03:29:13.676Z,961.56
2017-11-14T03:30:13.692Z,961.58
2017-11-14T03:31:13.705Z,961.6
2017-11-14T03:32:13.728Z,961.6
2017-11-14T03:33:13.732Z,961.57
2017-11-14T03:34:13.747Z,961.62
2017-11-14T03:35:13.760Z,961.62
2017-11-14T03:36:13.775Z,961.6
2017-11-14T03:37:13.788Z,961.63
2017-11-14T03:38:13.802Z,961.65
2017-11-14T03:39:13.816Z,961.6
2017-11-14T03:40:13.829Z,961.62
2017-11-14T03:41:13.845Z,961.63
2017-11-14T03:42:13.857Z,961.65
2017-11-14T03:43:13.871Z,961.64
2017-11-14T03:44:13.899Z,961.62
2017-11-14T03:45:13.912Z,961.66
2017-11-14T03:46:13.914Z,961.66
2017-11-14T03:47:13.929Z,961.68
2017-11-14T03:48:13.941Z,961.67
2017-11-14T03:49:14.075Z,961.69
2017-11-14T03:50:13.970Z,961.68
2017-11-14T03:51:13.982Z,961.72
2017-11-14T03:52:13.997Z,961.69
2017-11-14T03:53:14.014Z,961.65
2017-11-14T03:54:14.026Z,961.66
2017-11-14T03:55:14.039Z,961.65
2017-11-14T03:56:14.054Z,961.69
2017-11-14T03:57:14.066Z,961.72
2017-11-14T03:58:14.085Z,961.74
2017-11-14T03:59:14.145Z,961.72
2017-11-14T04:00:14.108Z,961.73
2017-11-14T04:01:14.122Z,961.74
2017-11-14T04:02:14.135Z,961.76
2017-11-14T04:03:14.153Z,961.8
2017-11-14T04:04:14.165Z,961.79
2017-11-14T04:05:14.178Z,961.81
2017-11-14T04:06:14.191Z,961.82
2017-11-14T04:07:14.205Z,961.81
2017-11-14T04:08:14.219Z,961.85
2017-11-14T04:09:14.234Z,961.9
2017-11-14T04:10:14.247Z,961.91
2017-11-14T04:11:14.264Z,961.93
2017-11-14T04:12:14.275Z,961.91
2017-11-14T04:13:14.288Z,961.9
2017-11-14T04:14:14.301Z,961.93
2017-11-14T04:15:14.316Z,961.97
2017-11-14T04:16:14.328Z,962.02
2017-11-14T04:17:14.342Z,962.06
2017-11-14T04:18:14.356Z,962.09
2017-11-14T04:19:14.372Z,962.09
2017-11-14T04:20:14.385Z,962.06
2017-11-14T04:21:14.399Z,962.13
2017-11-14T04:22:14.411Z,962.12
2017-11-14T04:23:14.429Z,962.17
2017-11-14T04:24:14.463Z,962.16
2017-11-14T04:25:14.453Z,962.16
2017-11-14T04:26:14.466Z,962.21
2017-11-14T04:27:14.481Z,962.18
2017-11-14T04:28:14.494Z,962.18
2017-11-14T04:29:14.508Z,962.22
2017-11-14T04:30:14.522Z,962.17
2017-11-14T04:31:14.535Z,962.23
2017-11-14T04:32:14.547Z,962.21
2017-11-14T04:33:14.563Z,962.21
2017-11-14T04:34:14.576Z,962.22
2017-11-14T04:35:14.587Z,962.23
2017-11-14T04:36:14.602Z,962.26
2017-11-14T04:37:14.616Z,962.26
2017-11-14T04:38:14.630Z,962.26
2017-11-14T04:39:14.641Z,962.27
2017-11-14T04:40:14.657Z,962.28
2017-11-14T04:41:14.670Z,962.26
2017-11-14T04:42:14.685Z,962.26
2017-11-14T04:43:14.697Z,962.27
2017-11-14T04:44:14.709Z,962.29
2017-11-14T04:45:14.723Z,962.26
2017-11-14T04:46:14.736Z,962.25
2017-11-14T04:47:14.751Z,962.28
2017-11-14T04:48:14.764Z,962.28
2017-11-14T04:49:14.777Z,962.34
2017-11-14T04:50:14.840Z,962.32
2017-11-14T04:51:14.807Z,962.31
2017-11-14T04:52:14.818Z,962.3
2017-11-14T04:53:14.831Z,962.3
2017-11-14T04:54:14.845Z,962.3
2017-11-14T04:55:14.859Z,962.35
2017-11-14T04:56:14.872Z,962.34
2017-11-14T04:57:14.885Z,962.37
2017-11-14T04:58:14.899Z,962.37
2017-11-14T04:59:14.911Z,962.38
2017-11-14T05:00:14.929Z,962.36
2017-11-14T05:01:14.939Z,962.34
2017-11-14T05:02:14.953Z,962.38
2017-11-14T05:03:14.967Z,962.35
2017-11-14T05:04:14.980Z,962.38
2017-11-14T05:05:15.044Z,962.36
2017-11-14T05:06:15.007Z,962.35
2017-11-14T05:07:15.020Z,962.37
2017-11-14T05:08:15.033Z,962.38
2017-11-14T05:09:15.045Z,962.41
2017-11-14T05:10:15.061Z,962.38
2017-11-14T05:11:15.074Z,962.38
2017-11-14T05:12:15.085Z,962.4
2017-11-14T05:13:15.100Z,962.35
2017-11-14T05:14:15.113Z,962.43
2017-11-14T05:15:15.125Z,962.39
2017-11-14T05:16:15.139Z,962.39
2017-11-14T05:17:15.153Z,962.44
2017-11-14T05:18:15.172Z,962.43
2017-11-14T05:19:15.184Z,962.41
2017-11-14T05:20:15.242Z,962.43
2017-11-14T05:21:15.212Z,962.41
2017-11-14T05:22:15.220Z,962.45
2017-11-14T05:23:15.236Z,962.45
2017-11-14T05:24:15.245Z,962.51
2017-11-14T05:25:15.259Z,962.54
2017-11-14T05:26:15.272Z,962.54
2017-11-14T05:27:15.284Z,962.58
2017-11-14T05:28:15.297Z,962.61
2017-11-14T05:29:15.312Z,962.62
2017-11-14T05:30:15.326Z,962.7
2017-11-14T05:31:15.346Z,962.7
2017-11-14T05:32:15.351Z,962.71
2017-11-14T05:33:15.368Z,962.72
2017-11-14T05:34:15.377Z,962.69
2017-11-14T05:35:15.390Z,962.72
2017-11-14T05:36:15.404Z,962.68
2017-11-14T05:37:15.415Z,962.66
2017-11-14T05:38:15.430Z,962.65
2017-11-14T05:39:15.444Z,962.66
2017-11-14T05:40:15.455Z,962.66
2017-11-14T05:41:15.470Z,962.65
2017-11-14T05:42:15.490Z,962.68
2017-11-14T05:43:15.495Z,962.66
2017-11-14T05:44:15.511Z,962.69
2017-11-14T05:45:15.521Z,962.71
2017-11-14T05:46:15.535Z,962.75
2017-11-14T05:47:15.547Z,962.69
2017-11-14T05:48:15.561Z,962.73
2017-11-14T05:49:15.575Z,962.74
2017-11-14T05:50:15.589Z,962.68
2017-11-14T05:51:15.601Z,962.71
2017-11-14T05:52:15.615Z,962.73
2017-11-14T05:53:15.628Z,962.75
2017-11-14T05:54:15.643Z,962.78
2017-11-14T05:55:15.654Z,962.78
2017-11-14T05:56:15.817Z,962.79
2017-11-14T05:57:15.689Z,962.81
2017-11-14T05:58:15.695Z,962.8
2017-11-14T05:59:15.706Z,962.83
2017-11-14T06:00:15.719Z,962.79
2017-11-14T06:01:15.732Z,962.86
2017-11-14T06:02:15.747Z,962.82
2017-11-14T06:03:15.758Z,962.91
2017-11-14T06:04:15.773Z,962.91
2017-11-14T06:05:15.792Z,962.93
2017-11-14T06:06:15.799Z,962.95
2017-11-14T06:07:15.811Z,962.92
2017-11-14T06:08:15.824Z,962.93
2017-11-14T06:09:15.854Z,962.99
2017-11-14T06:10:15.850Z,962.99
2017-11-14T06:11:15.915Z,962.97
2017-11-14T06:12:15.877Z,963
2017-11-14T06:13:15.890Z,963.01
2017-11-14T06:14:15.903Z,963.07
2017-11-14T06:15:15.914Z,963.08
2017-11-14T06:16:15.933Z,963.1
2017-11-14T06:17:15.944Z,963.13
2017-11-14T06:18:15.956Z,963.14
2017-11-14T06:19:15.967Z,963.13
2017-11-14T06:20:15.981Z,963.18
2017-11-14T06:21:15.993Z,963.13
2017-11-14T06:22:16.005Z,963.17
2017-11-14T06:23:16.018Z,963.1
2017-11-14T06:24:16.032Z,963.12
2017-11-14T06:25:16.049Z,963.14
2017-11-14T06:26:16.065Z,963.16
2017-11-14T06:27:16.120Z,963.19
2017-11-14T06:28:16.086Z,963.17
2017-11-14T06:29:16.096Z,963.22
2017-11-14T06:30:16.117Z,963.21
2017-11-14T06:31:16.124Z,963.24
2017-11-14T06:32:16.136Z,963.29
2017-11-14T06:33:16.149Z,963.28
2017-11-14T06:34:16.161Z,963.32
2017-11-14T06:35:16.176Z,963.32
2017-11-14T06:36:16.187Z,963.32
2017-11-14T06:37:16.199Z,963.37
2017-11-14T06:38:16.212Z,963.34
2017-11-14T06:39:16.227Z,963.4
2017-11-14T06:40:16.239Z,963.43
2017-11-14T06:41:16.261Z,963.5
2017-11-14T06:42:16.265Z,963.5
2017-11-14T06:43:16.278Z,963.52
2017-11-14T06:44:16.291Z,963.49
2017-11-14T06:45:16.305Z,963.54
2017-11-14T06:46:16.318Z,963.53
2017-11-14T06:47:16.330Z,963.57
2017-11-14T06:48:16.342Z,963.56
2017-11-14T06:49:16.361Z,963.58
2017-11-14T06:50:16.369Z,963.59
2017-11-14T06:51:16.382Z,963.62
2017-11-14T06:52:16.414Z,963.57
2017-11-14T06:53:16.409Z,963.65
2017-11-14T06:54:16.420Z,963.65
2017-11-14T06:55:16.433Z,963.62
2017-11-14T06:56:16.448Z,963.67
2017-11-14T06:57:16.461Z,963.61
2017-11-14T06:58:16.482Z,963.6
2017-11-14T06:59:16.491Z,963.6
2017-11-14T07:00:16.501Z,963.65
2017-11-14T07:01:16.513Z,963.65
2017-11-14T07:02:16.526Z,963.69
2017-11-14T07:03:16.540Z,963.7
2017-11-14T07:04:16.553Z,963.71
2017-11-14T07:05:16.566Z,963.75
2017-11-14T07:06:16.581Z,963.76
2017-11-14T07:07:16.593Z,963.77
2017-11-14T07:08:16.606Z,963.79
2017-11-14T07:09:16.617Z,963.79
2017-11-14T07:10:16.633Z,963.79
2017-11-14T07:11:16.646Z,963.78
2017-11-14T07:12:16.659Z,963.81
2017-11-14T07:13:16.673Z,963.78
2017-11-14T07:14:16.687Z,963.79
2017-11-14T07:15:16.750Z,963.83
2017-11-14T07:16:16.711Z,963.8
2017-11-14T07:17:16.726Z,963.84
2017-11-14T07:18:16.739Z,963.81
2017-11-14T07:19:16.754Z,963.86
2017-11-14T07:20:16.766Z,963.9
2017-11-14T07:21:16.781Z,963.9
2017-11-14T07:22:16.798Z,963.93
2017-11-14T07:23:16.809Z,963.96
2017-11-14T07:24:16.819Z,963.94
2017-11-14T07:25:16.833Z,963.98
2017-11-14T07:26:16.846Z,963.98
2017-11-14T07:27:16.858Z,964.03
2017-11-14T07:28:16.889Z,964.03
2017-11-14T07:29:16.886Z,964.09
2017-11-14T07:30:16.899Z,964.1
2017-11-14T07:31:16.911Z,964.08
2017-11-14T07:32:16.924Z,964.06
2017-11-14T07:33:16.939Z,964.09
2017-11-14T07:34:16.951Z,964.11
2017-11-14T07:35:16.971Z,964.14
2017-11-14T07:36:16.979Z,964.16
2017-11-14T07:37:16.993Z,964.16
2017-11-14T07:38:17.005Z,964.16
2017-11-14T07:39:17.017Z,964.17
2017-11-14T07:40:17.033Z,964.12
2017-11-14T07:41:17.045Z,964.14
2017-11-14T07:42:17.057Z,964.18
2017-11-14T07:43:17.073Z,964.19
2017-11-14T07:44:17.084Z,964.2
2017-11-14T07:45:17.098Z,964.17
2017-11-14T07:46:17.113Z,964.15
2017-11-14T07:47:17.126Z,964.14
2017-11-14T07:48:17.139Z,964.16
2017-11-14T07:49:17.153Z,964.13
2017-11-14T07:50:17.167Z,964.18
2017-11-14T07:51:17.181Z,964.2
2017-11-14T07:52:17.194Z,964.22
2017-11-14T07:53:17.207Z,964.22
2017-11-14T07:54:17.222Z,964.25
2017-11-14T07:55:17.236Z,964.25
2017-11-14T07:56:17.248Z,964.27
2017-11-14T07:57:17.262Z,964.25
2017-11-14T07:58:17.277Z,964.26
2017-11-14T07:59:17.292Z,964.2
2017-11-14T08:00:17.304Z,964.2
2017-11-14T08:01:17.319Z,964.22
2017-11-14T08:02:17.332Z,964.23
2017-11-14T08:03:17.346Z,964.22
2017-11-14T08:04:17.375Z,964.18
2017-11-14T08:05:17.376Z,964.2
2017-11-14T08:06:17.389Z,964.24
2017-11-14T08:07:17.403Z,964.25
2017-11-14T08:08:17.417Z,964.35
2017-11-14T08:09:17.432Z,964.35
2017-11-14T08:10:17.446Z,964.31
2017-11-14T08:11:17.461Z,964.34
2017-11-14T08:12:17.474Z,964.33
2017-11-14T08:13:17.488Z,964.34
2017-11-14T08:14:17.501Z,964.34
2017-11-14T08:15:17.517Z,964.34
2017-11-14T08:16:17.532Z,964.29
2017-11-14T08:17:17.545Z,964.32
2017-11-14T08:18:17.559Z,964.31
2017-11-14T08:19:17.581Z,964.33
2017-11-14T08:20:17.589Z,964.37
2017-11-14T08:21:17.604Z,964.36
2017-11-14T08:22:17.618Z,964.35
2017-11-14T08:23:17.634Z,964.35
2017-11-14T08:24:17.651Z,964.35
2017-11-14T08:25:17.683Z,964.32
2017-11-14T08:26:17.676Z,964.38
2017-11-14T08:27:17.693Z,964.35
2017-11-14T08:28:17.714Z,964.37
2017-11-14T08:29:17.721Z,964.35
2017-11-14T08:30:17.736Z,964.37
2017-11-14T08:31:17.750Z,964.32
2017-11-14T08:32:17.764Z,964.36
2017-11-14T08:33:17.797Z,964.34
2017-11-14T08:34:17.796Z,964.37
2017-11-14T08:35:17.810Z,964.38
2017-11-14T08:36:17.832Z,964.41
2017-11-14T08:37:17.843Z,964.43
2017-11-14T08:38:17.862Z,964.49
2017-11-14T08:39:17.876Z,964.5
2017-11-14T08:40:17.883Z,964.53
2017-11-14T08:41:17.898Z,964.51
2017-11-14T08:42:17.929Z,964.47
2017-11-14T08:43:17.940Z,964.47
2017-11-14T08:44:17.946Z,964.45
2017-11-14T08:45:17.961Z,964.47
2017-11-14T08:46:17.976Z,964.49
2017-11-14T08:47:17.991Z,964.46
2017-11-14T08:48:18.008Z,964.46
2017-11-14T08:49:18.023Z,964.47
2017-11-14T08:50:18.089Z,964.44
2017-11-14T08:51:18.054Z,964.46
2017-11-14T08:52:18.073Z,964.46
2017-11-14T08:53:18.085Z,964.5
2017-11-14T08:54:18.113Z,964.46
2017-11-14T08:55:18.117Z,964.48
2017-11-14T08:56:18.132Z,964.45
2017-11-14T08:57:18.148Z,964.51
2017-11-14T08:58:18.164Z,964.52
2017-11-14T08:59:18.180Z,964.51
2017-11-14T09:00:18.197Z,964.51
2017-11-14T09:01:18.213Z,964.48
2017-11-14T09:02:18.227Z,964.51
2017-11-14T09:03:18.246Z,964.5
2017-11-14T09:04:18.262Z,964.51
2017-11-14T09:05:18.324Z,964.52
2017-11-14T09:06:18.290Z,964.53
2017-11-14T09:07:18.305Z,964.54
2017-11-14T09:08:18.330Z,964.56
2017-11-14T09:09:18.339Z,964.57
2017-11-14T09:10:18.358Z,964.59
2017-11-14T09:11:18.374Z,964.6
2017-11-14T09:12:18.386Z,964.62
2017-11-14T09:13:18.401Z,964.61
2017-11-14T09:14:18.418Z,964.64
2017-11-14T09:15:18.433Z,964.64
2017-11-14T09:16:18.449Z,964.65
2017-11-14T09:17:18.465Z,964.64
2017-11-14T09:18:18.479Z,964.71
2017-11-14T09:19:18.497Z,964.7
2017-11-14T09:20:18.511Z,964.74
2017-11-14T09:21:18.528Z,964.74
2017-11-14T09:22:18.544Z,964.8
2017-11-14T09:23:18.561Z,964.76
2017-11-14T09:24:18.583Z,964.79
2017-11-14T09:25:18.591Z,964.8
2017-11-14T09:26:18.608Z,964.79
2017-11-14T09:27:18.624Z,964.84
2017-11-14T09:28:18.639Z,964.85
2017-11-14T09:29:18.655Z,964.85
2017-11-14T09:30:18.671Z,964.88
2017-11-14T09:31:18.690Z,964.88
2017-11-14T09:32:18.703Z,964.86
2017-11-14T09:33:18.720Z,964.85
2017-11-14T09:34:18.736Z,964.81
2017-11-14T09:35:18.759Z,964.8
2017-11-14T09:36:18.769Z,964.78
2017-11-14T09:37:18.804Z,964.82
2017-11-14T09:38:18.799Z,964.82
2017-11-14T09:39:18.817Z,964.82
2017-11-14T09:40:18.835Z,964.85
2017-11-14T09:41:18.850Z,964.84
2017-11-14T09:42:18.865Z,964.8
2017-11-14T09:43:18.881Z,964.88
2017-11-14T09:44:18.898Z,964.89
2017-11-14T09:45:18.916Z,964.86
2017-11-14T09:46:18.932Z,964.91
2017-11-14T09:47:18.956Z,964.86
2017-11-14T09:48:18.966Z,964.86
2017-11-14T09:49:18.982Z,964.9
2017-11-14T09:50:18.999Z,964.85
2017-11-14T09:51:19.016Z,964.88
2017-11-14T09:52:19.036Z,964.86
2017-11-14T09:53:19.053Z,964.88
2017-11-14T09:54:19.069Z,964.92
2017-11-14T09:55:19.088Z,964.92
2017-11-14T09:56:19.106Z,964.97
2017-11-14T09:57:19.126Z,964.96
2017-11-14T09:58:19.144Z,964.91
2017-11-14T09:59:19.213Z,964.85
2017-11-14T10:00:19.181Z,964.88
2017-11-14T10:01:19.209Z,964.89
2017-11-14T10:02:19.222Z,964.9
2017-11-14T10:03:19.241Z,964.87
2017-11-14T10:04:19.261Z,964.88
2017-11-14T10:05:19.283Z,964.88
2017-11-14T10:06:19.303Z,964.87
2017-11-14T10:07:19.326Z,964.88
2017-11-14T10:08:19.345Z,964.89
2017-11-14T10:09:19.366Z,964.89
2017-11-14T10:10:19.390Z,964.84
2017-11-14T10:11:19.410Z,964.89
2017-11-14T10:12:19.433Z,964.87
2017-11-14T10:13:19.457Z,964.91
2017-11-14T10:14:19.529Z,964.89
2017-11-14T10:15:19.501Z,964.91
2017-11-14T10:16:19.525Z,964.94
2017-11-14T10:17:19.548Z,964.92
2017-11-14T10:18:19.571Z,964.92
2017-11-14T10:19:19.594Z,964.94
2017-11-14T10:20:19.618Z,964.94
2017-11-14T10:21:19.648Z,964.91
2017-11-14T10:22:19.691Z,964.94
2017-11-14T10:23:19.689Z,964.93
2017-11-14T10:24:19.723Z,964.98
2017-11-14T10:25:19.740Z,964.96
2017-11-14T10:26:19.766Z,964.95
2017-11-14T10:27:19.789Z,964.94
2017-11-14T10:28:19.814Z,964.94
2017-11-14T10:29:19.889Z,964.92
2017-11-14T10:30:19.865Z,964.96
2017-11-14T10:31:19.891Z,965.01
2017-11-14T10:32:19.926Z,964.97
2017-11-14T10:33:19.939Z,964.98
2017-11-14T10:34:19.965Z,964.92
2017-11-14T10:35:19.990Z,964.96
2017-11-14T10:36:20.017Z,964.95
2017-11-14T10:37:20.041Z,964.98
2017-11-14T10:38:20.066Z,964.98
2017-11-14T10:39:20.094Z,965.03
2017-11-14T10:40:20.118Z,964.96
2017-11-14T10:41:20.160Z,964.93
2017-11-14T10:42:20.173Z,964.83
2017-11-14T10:43:20.200Z,964.86
2017-11-14T10:44:20.273Z,964.82
2017-11-14T10:45:20.248Z,964.83
2017-11-14T10:46:20.275Z,964.79
2017-11-14T10:47:20.300Z,964.83
2017-11-14T10:48:20.338Z,964.86
2017-11-14T10:49:20.349Z,964.83
2017-11-14T10:50:20.374Z,964.87
2017-11-14T10:51:20.400Z,964.88
2017-11-14T10:52:20.424Z,964.83
2017-11-14T10:53:20.451Z,964.88
2017-11-14T10:54:20.475Z,964.77
2017-11-14T10:55:20.499Z,964.75
2017-11-14T10:56:20.523Z,964.74
2017-11-14T10:57:20.549Z,964.71
2017-11-14T10:58:20.573Z,964.73
2017-11-14T10:59:20.597Z,964.74
2017-11-14T11:00:20.622Z,964.75
2017-11-14T11:01:20.696Z,964.78
2017-11-14T11:02:20.671Z,964.72
2017-11-14T11:03:20.694Z,964.74
2017-11-14T11:04:20.718Z,964.69
2017-11-14T11:05:20.741Z,964.72
2017-11-14T11:06:20.770Z,964.73
2017-11-14T11:07:20.790Z,964.79
2017-11-14T11:08:20.815Z,964.81
2017-11-14T11:09:20.840Z,964.82
2017-11-14T11:10:20.870Z,964.86
2017-11-14T11:11:20.891Z,964.89
2017-11-14T11:12:20.916Z,964.86
2017-11-14T11:13:20.941Z,964.88
2017-11-14T11:14:20.969Z,964.9
2017-11-14T11:15:20.995Z,964.93
2017-11-14T11:16:21.023Z,964.9
2017-11-14T11:17:21.048Z,964.89
2017-11-14T11:18:21.076Z,964.96
2017-11-14T11:19:21.105Z,964.92
2017-11-14T11:20:21.182Z,964.82
2017-11-14T11:21:21.159Z,964.95
2017-11-14T11:22:21.188Z,964.89
2017-11-14T11:23:21.216Z,964.91
2017-11-14T11:24:21.242Z,964.94
2017-11-14T11:25:21.272Z,964.98
2017-11-14T11:26:21.301Z,964.98
2017-11-14T11:27:21.329Z,964.98
2017-11-14T11:28:21.354Z,965.01
2017-11-14T11:29:21.385Z,964.99
2017-11-14T11:30:21.414Z,965.02
2017-11-14T11:31:21.442Z,965.01
2017-11-14T11:32:21.470Z,964.98
2017-11-14T11:33:21.501Z,965.03
2017-11-14T11:34:21.545Z,965.07
2017-11-14T11:35:21.558Z,965.03
2017-11-14T11:36:21.587Z,965.11
2017-11-14T11:37:21.617Z,965.12
2017-11-14T11:38:21.645Z,965.15
2017-11-14T11:39:21.675Z,965.13
2017-11-14T11:40:21.705Z,965.14
2017-11-14T11:41:21.734Z,965.15
2017-11-14T11:42:21.782Z,965.16
2017-11-14T11:43:21.792Z,965.18
2017-11-14T11:44:21.822Z,965.17
2017-11-14T11:45:21.853Z,965.18
2017-11-14T11:46:21.882Z,965.2
2017-11-14T11:47:21.911Z,965.21
2017-11-14T11:48:21.942Z,965.17
2017-11-14T11:49:21.975Z,965.21
2017-11-14T11:50:22.002Z,965.2
2017-11-14T11:51:22.034Z,965.24
2017-11-14T11:52:22.062Z,965.25
2017-11-14T11:53:22.092Z,965.24
2017-11-14T11:54:22.174Z,965.2
2017-11-14T11:55:22.154Z,965.11
2017-11-14T11:56:22.186Z,965.22
2017-11-14T11:57:22.214Z,965.24
2017-11-14T11:58:22.244Z,965.23
2017-11-14T11:59:22.276Z,965.23
2017-11-14T12:00:22.305Z,965.2
2017-11-14T12:01:22.335Z,965.17
2017-11-14T12:02:22.367Z,965.2
2017-11-14T12:03:22.398Z,965.19
2017-11-14T12:04:22.430Z,965.16
2017-11-14T12:05:22.459Z,965.12
2017-11-14T12:06:22.488Z,965.15
2017-11-14T12:07:22.520Z,965.15
2017-11-14T12:08:22.562Z,965.15
2017-11-14T12:09:22.630Z,965.19
2017-11-14T12:10:22.611Z,965.17
2017-11-14T12:11:22.642Z,965.16
2017-11-14T12:12:22.671Z,965.19
2017-11-14T12:13:22.702Z,965.21
2017-11-14T12:14:22.734Z,965.2
2017-11-14T12:15:22.764Z,965.22
2017-11-14T12:16:22.806Z,965.22
2017-11-14T12:17:22.832Z,965.18
2017-11-14T12:18:22.858Z,965.19
2017-11-14T12:19:22.885Z,965.18
2017-11-14T12:20:22.917Z,965.21
2017-11-14T12:21:22.948Z,965.21
2017-11-14T12:22:22.985Z,965.13
2017-11-14T12:23:23.010Z,965.12
2017-11-14T12:24:23.091Z,965.14
2017-11-14T12:25:23.073Z,965.14
2017-11-14T12:26:23.103Z,965.1
2017-11-14T12:27:23.134Z,965.11
2017-11-14T12:28:23.165Z,965.07
2017-11-14T12:29:23.197Z,965.1
2017-11-14T12:30:23.228Z,965.12